sensor_id;sensor_type;location;lat;lon;timestamp;pressure;altitude;pressure_sealevel;temperature
75811;BMP280;64449;50.016;19.954;2024-03-02T00:02:01;98074.70;;;8.97
75811;BMP280;64449;50.016;19.954;2024-03-02T00:04:26;98066.42;;;8.95
75811;BMP280;64449;50.016;19.954;2024-03-02T00:06:52;98065.48;;;8.93
75811;BMP280;64449;50.016;19.954;2024-03-02T00:09:21;98067.84;;;8.93
75811;BMP280;64449;50.016;19.954;2024-03-02T00:11:46;98069.99;;;8.92
75811;BMP280;64449;50.016;19.954;2024-03-02T00:14:12;98070.68;;;8.94
75811;BMP280;64449;50.016;19.954;2024-03-02T00:16:37;98071.82;;;8.94
75811;BMP280;64449;50.016;19.954;2024-03-02T00:19:03;98071.95;;;8.95
75811;BMP280;64449;50.016;19.954;2024-03-02T00:21:32;98073.77;;;8.96
75811;BMP280;64449;50.016;19.954;2024-03-02T00:23:58;98079.04;;;8.97
75811;BMP280;64449;50.016;19.954;2024-03-02T00:26:25;98080.34;;;8.96
75811;BMP280;64449;50.016;19.954;2024-03-02T00:28:54;98083.52;;;8.95
75811;BMP280;64449;50.016;19.954;2024-03-02T00:31:22;98081.17;;;8.94
75811;BMP280;64449;50.016;19.954;2024-03-02T00:33:48;98072.60;;;8.93
75811;BMP280;64449;50.016;19.954;2024-03-02T00:36:15;98067.65;;;8.89
75811;BMP280;64449;50.016;19.954;2024-03-02T00:38:49;98063.29;;;8.85
75811;BMP280;64449;50.016;19.954;2024-03-02T00:41:35;98067.45;;;8.85
75811;BMP280;64449;50.016;19.954;2024-03-02T00:44:06;98070.07;;;8.84
75811;BMP280;64449;50.016;19.954;2024-03-02T00:46:42;98072.98;;;8.83
75811;BMP280;64449;50.016;19.954;2024-03-02T00:49:18;98074.73;;;8.83
75811;BMP280;64449;50.016;19.954;2024-03-02T00:51:48;98069.27;;;8.83
75811;BMP280;64449;50.016;19.954;2024-03-02T00:54:15;98064.73;;;8.83
75811;BMP280;64449;50.016;19.954;2024-03-02T00:56:41;98061.09;;;8.82
75811;BMP280;64449;50.016;19.954;2024-03-02T00:59:07;98058.21;;;8.81
75811;BMP280;64449;50.016;19.954;2024-03-02T01:01:34;98056.61;;;8.80
75811;BMP280;64449;50.016;19.954;2024-03-02T01:04:00;98054.88;;;8.80
75811;BMP280;64449;50.016;19.954;2024-03-02T01:06:25;98049.98;;;8.78
75811;BMP280;64449;50.016;19.954;2024-03-02T01:08:50;98045.88;;;8.76
75811;BMP280;64449;50.016;19.954;2024-03-02T01:11:17;98047.20;;;8.74
75811;BMP280;64449;50.016;19.954;2024-03-02T01:13:51;98046.14;;;8.71
75811;BMP280;64449;50.016;19.954;2024-03-02T01:16:17;98043.30;;;8.69
75811;BMP280;64449;50.016;19.954;2024-03-02T01:18:43;98041.80;;;8.68
75811;BMP280;64449;50.016;19.954;2024-03-02T01:21:08;98042.30;;;8.67
75811;BMP280;64449;50.016;19.954;2024-03-02T01:23:34;98045.48;;;8.67
75811;BMP280;64449;50.016;19.954;2024-03-02T01:25:59;98041.34;;;8.67
75811;BMP280;64449;50.016;19.954;2024-03-02T01:28:25;98038.92;;;8.66
75811;BMP280;64449;50.016;19.954;2024-03-02T01:30:50;98035.42;;;8.64
75811;BMP280;64449;50.016;19.954;2024-03-02T01:33:17;98036.25;;;8.60
75811;BMP280;64449;50.016;19.954;2024-03-02T01:35:43;98036.44;;;8.56
75811;BMP280;64449;50.016;19.954;2024-03-02T01:38:08;98028.98;;;8.55
75811;BMP280;64449;50.016;19.954;2024-03-02T01:40:35;98024.30;;;8.53
75811;BMP280;64449;50.016;19.954;2024-03-02T01:43:00;98017.08;;;8.50
75811;BMP280;64449;50.016;19.954;2024-03-02T01:45:27;98009.98;;;8.45
75811;BMP280;64449;50.016;19.954;2024-03-02T01:47:53;98011.66;;;8.43
75811;BMP280;64449;50.016;19.954;2024-03-02T01:50:29;98010.21;;;8.43
75811;BMP280;64449;50.016;19.954;2024-03-02T01:52:58;98010.99;;;8.43
75811;BMP280;64449;50.016;19.954;2024-03-02T01:55:24;98013.49;;;8.44
75811;BMP280;64449;50.016;19.954;2024-03-02T01:57:51;98011.16;;;8.44
75811;BMP280;64449;50.016;19.954;2024-03-02T02:00:18;98016.33;;;8.45
75811;BMP280;64449;50.016;19.954;2024-03-02T02:02:45;98020.04;;;8.47
75811;BMP280;64449;50.016;19.954;2024-03-02T02:05:10;98016.17;;;8.48
75811;BMP280;64449;50.016;19.954;2024-03-02T02:07:36;98015.47;;;8.49
75811;BMP280;64449;50.016;19.954;2024-03-02T02:10:02;98019.91;;;8.50
75811;BMP280;64449;50.016;19.954;2024-03-02T02:12:27;98018.86;;;8.50
75811;BMP280;64449;50.016;19.954;2024-03-02T02:14:53;98020.91;;;8.50
75811;BMP280;64449;50.016;19.954;2024-03-02T02:17:18;98025.10;;;8.49
75811;BMP280;64449;50.016;19.954;2024-03-02T02:19:44;98019.98;;;8.48
75811;BMP280;64449;50.016;19.954;2024-03-02T02:22:10;98015.48;;;8.48
75811;BMP280;64449;50.016;19.954;2024-03-02T02:24:39;98015.40;;;8.46
75811;BMP280;64449;50.016;19.954;2024-03-02T02:27:05;98017.66;;;8.44
75811;BMP280;64449;50.016;19.954;2024-03-02T02:29:30;98022.83;;;8.42
75811;BMP280;64449;50.016;19.954;2024-03-02T02:31:56;98021.33;;;8.39
75811;BMP280;64449;50.016;19.954;2024-03-02T02:34:21;98017.71;;;8.36
75811;BMP280;64449;50.016;19.954;2024-03-02T02:36:47;98015.14;;;8.32
75811;BMP280;64449;50.016;19.954;2024-03-02T02:39:15;98015.48;;;8.27
75811;BMP280;64449;50.016;19.954;2024-03-02T02:41:41;98012.93;;;8.20
75811;BMP280;64449;50.016;19.954;2024-03-02T02:44:06;98007.77;;;8.15
75811;BMP280;64449;50.016;19.954;2024-03-02T02:46:31;98011.85;;;8.14
75811;BMP280;64449;50.016;19.954;2024-03-02T02:48:57;98015.40;;;8.15
75811;BMP280;64449;50.016;19.954;2024-03-02T02:51:22;98008.44;;;8.15
75811;BMP280;64449;50.016;19.954;2024-03-02T02:53:51;98001.27;;;8.15
75811;BMP280;64449;50.016;19.954;2024-03-02T02:56:16;97993.84;;;8.14
75811;BMP280;64449;50.016;19.954;2024-03-02T02:58:42;97997.09;;;8.11
75811;BMP280;64449;50.016;19.954;2024-03-02T03:01:07;98000.09;;;8.08
75811;BMP280;64449;50.016;19.954;2024-03-02T03:03:33;98003.23;;;8.06
75811;BMP280;64449;50.016;19.954;2024-03-02T03:05:59;98008.95;;;8.07
75811;BMP280;64449;50.016;19.954;2024-03-02T03:08:24;98013.77;;;8.07
75811;BMP280;64449;50.016;19.954;2024-03-02T03:10:50;98011.71;;;8.08
75811;BMP280;64449;50.016;19.954;2024-03-02T03:13:15;98008.83;;;8.08
75811;BMP280;64449;50.016;19.954;2024-03-02T03:15:41;98017.57;;;8.08
75811;BMP280;64449;50.016;19.954;2024-03-02T03:18:06;98021.91;;;8.08
75811;BMP280;64449;50.016;19.954;2024-03-02T03:20:38;98023.73;;;8.08
75811;BMP280;64449;50.016;19.954;2024-03-02T03:23:03;98020.62;;;8.07
75811;BMP280;64449;50.016;19.954;2024-03-02T03:25:30;98016.78;;;8.05
75811;BMP280;64449;50.016;19.954;2024-03-02T03:27:55;98011.13;;;8.03
75811;BMP280;64449;50.016;19.954;2024-03-02T03:30:21;98005.32;;;8.00
75811;BMP280;64449;50.016;19.954;2024-03-02T03:32:46;98009.41;;;8.00
75811;BMP280;64449;50.016;19.954;2024-03-02T03:35:13;98006.54;;;8.01
75811;BMP280;64449;50.016;19.954;2024-03-02T03:37:40;98007.52;;;8.01
75811;BMP280;64449;50.016;19.954;2024-03-02T03:40:06;98006.33;;;8.01
75811;BMP280;64449;50.016;19.954;2024-03-02T03:42:38;98003.22;;;8.01
75811;BMP280;64449;50.016;19.954;2024-03-02T03:45:05;98000.40;;;8.02
75811;BMP280;64449;50.016;19.954;2024-03-02T03:47:32;97995.83;;;8.01
75811;BMP280;64449;50.016;19.954;2024-03-02T03:49:57;97995.34;;;8.00
75811;BMP280;64449;50.016;19.954;2024-03-02T03:52:23;97993.58;;;8.00
75811;BMP280;64449;50.016;19.954;2024-03-02T03:54:49;97991.10;;;7.99
75811;BMP280;64449;50.016;19.954;2024-03-02T03:57:15;97991.73;;;7.98
75811;BMP280;64449;50.016;19.954;2024-03-02T03:59:41;97989.83;;;7.94
75811;BMP280;64449;50.016;19.954;2024-03-02T04:02:07;97993.73;;;7.92
75811;BMP280;64449;50.016;19.954;2024-03-02T04:04:33;98000.84;;;7.90
75811;BMP280;64449;50.016;19.954;2024-03-02T04:06:58;97997.39;;;7.86
75811;BMP280;64449;50.016;19.954;2024-03-02T04:09:24;97995.08;;;7.83
75811;BMP280;64449;50.016;19.954;2024-03-02T04:11:51;97993.29;;;7.81
75811;BMP280;64449;50.016;19.954;2024-03-02T04:14:17;97993.48;;;7.81
75811;BMP280;64449;50.016;19.954;2024-03-02T04:16:42;97991.71;;;7.81
75811;BMP280;64449;50.016;19.954;2024-03-02T04:19:08;97995.52;;;7.81
75811;BMP280;64449;50.016;19.954;2024-03-02T04:21:33;97997.31;;;7.83
75811;BMP280;64449;50.016;19.954;2024-03-02T04:23:58;98000.27;;;7.83
75811;BMP280;64449;50.016;19.954;2024-03-02T04:26:27;97999.59;;;7.82
75811;BMP280;64449;50.016;19.954;2024-03-02T04:28:53;97999.40;;;7.80
75811;BMP280;64449;50.016;19.954;2024-03-02T04:31:19;98000.03;;;7.77
75811;BMP280;64449;50.016;19.954;2024-03-02T04:33:45;97999.40;;;7.74
75811;BMP280;64449;50.016;19.954;2024-03-02T04:36:11;98000.48;;;7.72
75811;BMP280;64449;50.016;19.954;2024-03-02T04:38:38;98001.05;;;7.70
75811;BMP280;64449;50.016;19.954;2024-03-02T04:41:06;98000.70;;;7.69
75811;BMP280;64449;50.016;19.954;2024-03-02T04:43:33;98003.92;;;7.69
75811;BMP280;64449;50.016;19.954;2024-03-02T04:45:59;98002.64;;;7.71
75811;BMP280;64449;50.016;19.954;2024-03-02T04:48:25;97998.86;;;7.71
75811;BMP280;64449;50.016;19.954;2024-03-02T04:50:50;97995.41;;;7.72
75811;BMP280;64449;50.016;19.954;2024-03-02T04:53:16;97987.12;;;7.72
75811;BMP280;64449;50.016;19.954;2024-03-02T04:55:41;97984.14;;;7.72
75811;BMP280;64449;50.016;19.954;2024-03-02T04:58:07;97987.53;;;7.71
75811;BMP280;64449;50.016;19.954;2024-03-02T05:00:33;97994.49;;;7.70
75811;BMP280;64449;50.016;19.954;2024-03-02T05:02:59;97993.97;;;7.70
75811;BMP280;64449;50.016;19.954;2024-03-02T05:05:24;98000.55;;;7.70
75811;BMP280;64449;50.016;19.954;2024-03-02T05:07:50;98004.02;;;7.70
75811;BMP280;64449;50.016;19.954;2024-03-02T05:10:15;98005.84;;;7.69
75811;BMP280;64449;50.016;19.954;2024-03-02T05:12:41;98011.06;;;7.68
75811;BMP280;64449;50.016;19.954;2024-03-02T05:15:11;98013.06;;;7.66
75811;BMP280;64449;50.016;19.954;2024-03-02T05:17:37;98016.29;;;7.65
75811;BMP280;64449;50.016;19.954;2024-03-02T05:20:04;98023.85;;;7.64
75811;BMP280;64449;50.016;19.954;2024-03-02T05:22:30;98028.25;;;7.63
75811;BMP280;64449;50.016;19.954;2024-03-02T05:24:56;98033.14;;;7.64
75811;BMP280;64449;50.016;19.954;2024-03-02T05:27:21;98034.73;;;7.64
75811;BMP280;64449;50.016;19.954;2024-03-02T05:29:47;98039.63;;;7.65
75811;BMP280;64449;50.016;19.954;2024-03-02T05:32:12;98040.52;;;7.64
75811;BMP280;64449;50.016;19.954;2024-03-02T05:34:38;98040.64;;;7.63
75811;BMP280;64449;50.016;19.954;2024-03-02T05:37:03;98041.86;;;7.63
75811;BMP280;64449;50.016;19.954;2024-03-02T05:39:29;98041.56;;;7.63
75811;BMP280;64449;50.016;19.954;2024-03-02T05:41:54;98043.79;;;7.64
75811;BMP280;64449;50.016;19.954;2024-03-02T05:44:19;98047.63;;;7.66
75811;BMP280;64449;50.016;19.954;2024-03-02T05:46:45;98046.15;;;7.67
75811;BMP280;64449;50.016;19.954;2024-03-02T05:49:11;98044.21;;;7.68
75811;BMP280;64449;50.016;19.954;2024-03-02T05:51:36;98040.79;;;7.70
75811;BMP280;64449;50.016;19.954;2024-03-02T05:54:02;98034.01;;;7.70
75811;BMP280;64449;50.016;19.954;2024-03-02T05:56:28;98032.39;;;7.71
75811;BMP280;64449;50.016;19.954;2024-03-02T05:58:53;98035.85;;;7.71
75811;BMP280;64449;50.016;19.954;2024-03-02T06:01:45;98039.61;;;7.73
75811;BMP280;64449;50.016;19.954;2024-03-02T06:04:20;98040.54;;;7.76
75811;BMP280;64449;50.016;19.954;2024-03-02T06:06:45;98038.83;;;7.77
75811;BMP280;64449;50.016;19.954;2024-03-02T06:09:11;98042.56;;;7.76
75811;BMP280;64449;50.016;19.954;2024-03-02T06:11:40;98047.98;;;7.76
75811;BMP280;64449;50.016;19.954;2024-03-02T06:14:07;98054.02;;;7.77
75811;BMP280;64449;50.016;19.954;2024-03-02T06:16:33;98057.45;;;7.80
75811;BMP280;64449;50.016;19.954;2024-03-02T06:18:59;98064.15;;;7.85
75811;BMP280;64449;50.016;19.954;2024-03-02T06:21:25;98064.91;;;7.88
75811;BMP280;64449;50.016;19.954;2024-03-02T06:23:50;98065.23;;;7.91
75811;BMP280;64449;50.016;19.954;2024-03-02T06:26:16;98067.95;;;7.95
75811;BMP280;64449;50.016;19.954;2024-03-02T06:28:41;98065.81;;;7.99
75811;BMP280;64449;50.016;19.954;2024-03-02T06:31:07;98063.56;;;8.03
75811;BMP280;64449;50.016;19.954;2024-03-02T06:33:33;98066.80;;;8.07
75811;BMP280;64449;50.016;19.954;2024-03-02T06:35:58;98068.25;;;8.11
75811;BMP280;64449;50.016;19.954;2024-03-02T06:38:23;98064.17;;;8.15
75811;BMP280;64449;50.016;19.954;2024-03-02T06:40:49;98060.95;;;8.19
75811;BMP280;64449;50.016;19.954;2024-03-02T06:43:14;98061.99;;;8.22
75811;BMP280;64449;50.016;19.954;2024-03-02T06:45:40;98063.79;;;8.25
75811;BMP280;64449;50.016;19.954;2024-03-02T06:48:06;98069.44;;;8.29
75811;BMP280;64449;50.016;19.954;2024-03-02T06:50:31;98071.00;;;8.32
75811;BMP280;64449;50.016;19.954;2024-03-02T06:52:57;98075.08;;;8.35
75811;BMP280;64449;50.016;19.954;2024-03-02T06:55:22;98071.44;;;8.38
75811;BMP280;64449;50.016;19.954;2024-03-02T06:57:50;98063.89;;;8.42
75811;BMP280;64449;50.016;19.954;2024-03-02T07:00:16;98068.25;;;8.46
75811;BMP280;64449;50.016;19.954;2024-03-02T07:02:43;98071.62;;;8.51
75811;BMP280;64449;50.016;19.954;2024-03-02T07:05:10;98070.15;;;8.53
75811;BMP280;64449;50.016;19.954;2024-03-02T07:07:36;98066.54;;;8.56
75811;BMP280;64449;50.016;19.954;2024-03-02T07:10:06;98070.36;;;8.59
75811;BMP280;64449;50.016;19.954;2024-03-02T07:12:34;98077.45;;;8.63
75811;BMP280;64449;50.016;19.954;2024-03-02T07:15:00;98080.20;;;8.67
75811;BMP280;64449;50.016;19.954;2024-03-02T07:17:28;98082.36;;;8.65
75811;BMP280;64449;50.016;19.954;2024-03-02T07:19:54;98082.19;;;8.57
75811;BMP280;64449;50.016;19.954;2024-03-02T07:22:19;98087.30;;;8.53
75811;BMP280;64449;50.016;19.954;2024-03-02T07:24:45;98095.96;;;8.51
75811;BMP280;64449;50.016;19.954;2024-03-02T07:27:11;98097.56;;;8.51
75811;BMP280;64449;50.016;19.954;2024-03-02T07:29:37;98093.32;;;8.50
75811;BMP280;64449;50.016;19.954;2024-03-02T07:32:04;98082.86;;;8.52
75811;BMP280;64449;50.016;19.954;2024-03-02T07:34:30;98083.42;;;8.54
75811;BMP280;64449;50.016;19.954;2024-03-02T07:36:56;98086.55;;;8.56
75811;BMP280;64449;50.016;19.954;2024-03-02T07:39:22;98083.83;;;8.59
75811;BMP280;64449;50.016;19.954;2024-03-02T07:41:48;98088.75;;;8.64
75811;BMP280;64449;50.016;19.954;2024-03-02T07:44:13;98092.96;;;8.70
75811;BMP280;64449;50.016;19.954;2024-03-02T07:46:44;98089.85;;;8.75
75811;BMP280;64449;50.016;19.954;2024-03-02T07:49:18;98091.16;;;8.82
75811;BMP280;64449;50.016;19.954;2024-03-02T07:51:44;98092.23;;;8.89
75811;BMP280;64449;50.016;19.954;2024-03-02T07:54:09;98095.70;;;8.94
75811;BMP280;64449;50.016;19.954;2024-03-02T07:56:35;98096.41;;;9.00
75811;BMP280;64449;50.016;19.954;2024-03-02T07:59:01;98096.48;;;9.07
75811;BMP280;64449;50.016;19.954;2024-03-02T08:01:31;98102.48;;;9.14
75811;BMP280;64449;50.016;19.954;2024-03-02T08:03:58;98102.97;;;9.22
75811;BMP280;64449;50.016;19.954;2024-03-02T08:06:27;98103.19;;;9.29
75811;BMP280;64449;50.016;19.954;2024-03-02T08:08:54;98105.77;;;9.36
75811;BMP280;64449;50.016;19.954;2024-03-02T08:11:20;98099.58;;;9.44
75811;BMP280;64449;50.016;19.954;2024-03-02T08:13:46;98097.96;;;9.52
75811;BMP280;64449;50.016;19.954;2024-03-02T08:16:11;98100.59;;;9.57
75811;BMP280;64449;50.016;19.954;2024-03-02T08:18:36;98102.20;;;9.61
75811;BMP280;64449;50.016;19.954;2024-03-02T08:21:02;98101.98;;;9.67
75811;BMP280;64449;50.016;19.954;2024-03-02T08:23:28;98096.41;;;9.71
75811;BMP280;64449;50.016;19.954;2024-03-02T08:25:54;98094.67;;;9.75
75811;BMP280;64449;50.016;19.954;2024-03-02T08:28:19;98100.11;;;9.78
75811;BMP280;64449;50.016;19.954;2024-03-02T08:30:45;98103.98;;;9.80
75811;BMP280;64449;50.016;19.954;2024-03-02T08:33:10;98105.22;;;9.81
75811;BMP280;64449;50.016;19.954;2024-03-02T08:35:36;98106.86;;;9.81
75811;BMP280;64449;50.016;19.954;2024-03-02T08:38:02;98106.29;;;9.82
75811;BMP280;64449;50.016;19.954;2024-03-02T08:40:28;98111.02;;;9.85
75811;BMP280;64449;50.016;19.954;2024-03-02T08:42:54;98118.44;;;9.88
75811;BMP280;64449;50.016;19.954;2024-03-02T08:45:20;98121.46;;;9.91
75811;BMP280;64449;50.016;19.954;2024-03-02T08:47:46;98117.36;;;9.93
75811;BMP280;64449;50.016;19.954;2024-03-02T08:50:12;98116.53;;;9.96
75811;BMP280;64449;50.016;19.954;2024-03-02T08:52:37;98120.60;;;9.98
75811;BMP280;64449;50.016;19.954;2024-03-02T08:55:03;98121.69;;;9.96
75811;BMP280;64449;50.016;19.954;2024-03-02T08:57:29;98118.48;;;9.96
75811;BMP280;64449;50.016;19.954;2024-03-02T08:59:55;98125.84;;;9.99
75811;BMP280;64449;50.016;19.954;2024-03-02T09:02:21;98125.03;;;10.01
75811;BMP280;64449;50.016;19.954;2024-03-02T09:04:46;98126.07;;;10.04
75811;BMP280;64449;50.016;19.954;2024-03-02T09:07:11;98121.39;;;10.07
75811;BMP280;64449;50.016;19.954;2024-03-02T09:09:37;98124.52;;;10.07
75811;BMP280;64449;50.016;19.954;2024-03-02T09:12:05;98127.65;;;10.07
75811;BMP280;64449;50.016;19.954;2024-03-02T09:14:31;98128.95;;;10.08
75811;BMP280;64449;50.016;19.954;2024-03-02T09:16:56;98134.62;;;10.11
75811;BMP280;64449;50.016;19.954;2024-03-02T09:19:22;98131.52;;;10.14
75811;BMP280;64449;50.016;19.954;2024-03-02T09:21:47;98132.60;;;10.18
75811;BMP280;64449;50.016;19.954;2024-03-02T09:24:12;98136.35;;;10.22
75811;BMP280;64449;50.016;19.954;2024-03-02T09:26:38;98136.36;;;10.29
75811;BMP280;64449;50.016;19.954;2024-03-02T09:29:03;98140.85;;;10.35
75811;BMP280;64449;50.016;19.954;2024-03-02T09:31:29;98145.52;;;10.42
75811;BMP280;64449;50.016;19.954;2024-03-02T09:33:55;98149.21;;;10.47
75811;BMP280;64449;50.016;19.954;2024-03-02T09:36:21;98151.57;;;10.52
75811;BMP280;64449;50.016;19.954;2024-03-02T09:38:47;98154.33;;;10.55
75811;BMP280;64449;50.016;19.954;2024-03-02T09:41:14;98157.92;;;10.58
75811;BMP280;64449;50.016;19.954;2024-03-02T09:43:40;98157.98;;;10.60
75811;BMP280;64449;50.016;19.954;2024-03-02T09:46:07;98160.39;;;10.63
75811;BMP280;64449;50.016;19.954;2024-03-02T09:48:33;98161.52;;;10.67
75811;BMP280;64449;50.016;19.954;2024-03-02T09:51:00;98157.34;;;10.70
75811;BMP280;64449;50.016;19.954;2024-03-02T09:53:31;98157.20;;;10.75
75811;BMP280;64449;50.016;19.954;2024-03-02T09:56:01;98157.05;;;10.80
75811;BMP280;64449;50.016;19.954;2024-03-02T09:58:26;98159.04;;;10.85
75811;BMP280;64449;50.016;19.954;2024-03-02T10:00:52;98161.07;;;10.91
75811;BMP280;64449;50.016;19.954;2024-03-02T10:03:18;98161.70;;;10.98
75811;BMP280;64449;50.016;19.954;2024-03-02T10:05:44;98166.38;;;11.05
75811;BMP280;64449;50.016;19.954;2024-03-02T10:08:09;98169.84;;;11.11
75811;BMP280;64449;50.016;19.954;2024-03-02T10:13:06;98163.05;;;11.18
75811;BMP280;64449;50.016;19.954;2024-03-02T10:15:32;98159.45;;;11.23
75811;BMP280;64449;50.016;19.954;2024-03-02T10:17:58;98159.92;;;11.30
75811;BMP280;64449;50.016;19.954;2024-03-02T10:20:24;98157.34;;;11.35
75811;BMP280;64449;50.016;19.954;2024-03-02T10:22:50;98156.66;;;11.40
75811;BMP280;64449;50.016;19.954;2024-03-02T10:25:29;98160.31;;;11.43
75811;BMP280;64449;50.016;19.954;2024-03-02T10:27:57;98159.00;;;11.49
75811;BMP280;64449;50.016;19.954;2024-03-02T10:30:23;98155.75;;;11.55
75811;BMP280;64449;50.016;19.954;2024-03-02T10:32:49;98153.25;;;11.59
75811;BMP280;64449;50.016;19.954;2024-03-02T10:35:16;98150.99;;;11.67
75811;BMP280;64449;50.016;19.954;2024-03-02T10:37:42;98145.64;;;11.75
75811;BMP280;64449;50.016;19.954;2024-03-02T10:40:10;98143.42;;;11.82
75811;BMP280;64449;50.016;19.954;2024-03-02T10:42:37;98147.86;;;11.89
75811;BMP280;64449;50.016;19.954;2024-03-02T10:45:06;98147.14;;;11.96
75811;BMP280;64449;50.016;19.954;2024-03-02T10:47:33;98144.56;;;12.08
75811;BMP280;64449;50.016;19.954;2024-03-02T10:50:04;98145.27;;;12.24
75811;BMP280;64449;50.016;19.954;2024-03-02T10:52:40;98144.13;;;12.44
75811;BMP280;64449;50.016;19.954;2024-03-02T10:55:06;98146.83;;;12.66
75811;BMP280;64449;50.016;19.954;2024-03-02T10:57:45;98140.92;;;12.88
75811;BMP280;64449;50.016;19.954;2024-03-02T11:00:15;98132.80;;;13.11
75811;BMP280;64449;50.016;19.954;2024-03-02T11:02:51;98128.34;;;13.29
75811;BMP280;64449;50.016;19.954;2024-03-02T11:05:26;98133.09;;;13.42
75811;BMP280;64449;50.016;19.954;2024-03-02T11:08:07;98132.95;;;13.54
75811;BMP280;64449;50.016;19.954;2024-03-02T11:10:35;98130.71;;;13.68
75811;BMP280;64449;50.016;19.954;2024-03-02T11:13:05;98127.06;;;13.81
75811;BMP280;64449;50.016;19.954;2024-03-02T11:15:31;98128.61;;;13.96
75811;BMP280;64449;50.016;19.954;2024-03-02T11:17:58;98129.34;;;14.09
75811;BMP280;64449;50.016;19.954;2024-03-02T11:20:25;98131.02;;;14.25
75811;BMP280;64449;50.016;19.954;2024-03-02T11:22:50;98131.38;;;14.40
75811;BMP280;64449;50.016;19.954;2024-03-02T11:25:26;98127.93;;;14.49
75811;BMP280;64449;50.016;19.954;2024-03-02T11:33:05;98123.90;;;14.70
75811;BMP280;64449;50.016;19.954;2024-03-02T11:35:51;98121.58;;;14.70
75811;BMP280;64449;50.016;19.954;2024-03-02T11:38:18;98115.38;;;14.71
75811;BMP280;64449;50.016;19.954;2024-03-02T11:40:44;98115.95;;;14.71
75811;BMP280;64449;50.016;19.954;2024-03-02T11:43:10;98115.70;;;14.68
75811;BMP280;64449;50.016;19.954;2024-03-02T11:45:36;98113.88;;;14.61
75811;BMP280;64449;50.016;19.954;2024-03-02T11:48:06;98111.79;;;14.58
75811;BMP280;64449;50.016;19.954;2024-03-02T11:50:36;98108.33;;;14.54
75811;BMP280;64449;50.016;19.954;2024-03-02T11:53:06;98107.36;;;14.50
75811;BMP280;64449;50.016;19.954;2024-03-02T11:55:35;98107.19;;;14.48
75811;BMP280;64449;50.016;19.954;2024-03-02T11:58:03;98105.66;;;14.45
75811;BMP280;64449;50.016;19.954;2024-03-02T12:00:29;98106.45;;;14.39
75811;BMP280;64449;50.016;19.954;2024-03-02T12:03:01;98105.13;;;14.31
75811;BMP280;64449;50.016;19.954;2024-03-02T12:05:28;98109.55;;;14.26
75811;BMP280;64449;50.016;19.954;2024-03-02T12:07:57;98110.88;;;14.22
75811;BMP280;64449;50.016;19.954;2024-03-02T12:10:24;98109.21;;;14.19
75811;BMP280;64449;50.016;19.954;2024-03-02T12:13:03;98116.24;;;14.18
75811;BMP280;64449;50.016;19.954;2024-03-02T12:15:33;98117.70;;;14.14
75811;BMP280;64449;50.016;19.954;2024-03-02T12:18:00;98117.23;;;14.13
75811;BMP280;64449;50.016;19.954;2024-03-02T12:20:28;98119.81;;;14.10
75811;BMP280;64449;50.016;19.954;2024-03-02T12:22:57;98122.64;;;14.07
75811;BMP280;64449;50.016;19.954;2024-03-02T12:25:24;98119.30;;;14.04
75811;BMP280;64449;50.016;19.954;2024-03-02T12:27:51;98115.87;;;14.03
75811;BMP280;64449;50.016;19.954;2024-03-02T12:30:17;98113.95;;;14.03
75811;BMP280;64449;50.016;19.954;2024-03-02T12:32:44;98115.50;;;14.09
75811;BMP280;64449;50.016;19.954;2024-03-02T12:35:11;98111.05;;;14.14
75811;BMP280;64449;50.016;19.954;2024-03-02T12:37:49;98109.22;;;14.24
75811;BMP280;64449;50.016;19.954;2024-03-02T12:40:17;98108.19;;;14.34
75811;BMP280;64449;50.016;19.954;2024-03-02T12:42:44;98108.07;;;14.45
75811;BMP280;64449;50.016;19.954;2024-03-02T12:45:11;98112.48;;;14.60
75811;BMP280;64449;50.016;19.954;2024-03-02T12:47:37;98109.05;;;14.85
75811;BMP280;64449;50.016;19.954;2024-03-02T12:50:07;98100.05;;;15.34
75811;BMP280;64449;50.016;19.954;2024-03-02T12:52:33;98097.52;;;15.90
75811;BMP280;64449;50.016;19.954;2024-03-02T12:55:04;98093.70;;;16.73
75811;BMP280;64449;50.016;19.954;2024-03-02T12:57:31;98095.66;;;17.55
75811;BMP280;64449;50.016;19.954;2024-03-02T13:00:06;98103.00;;;18.25
75811;BMP280;64449;50.016;19.954;2024-03-02T13:02:39;98106.52;;;18.88
75811;BMP280;64449;50.016;19.954;2024-03-02T13:05:06;98103.61;;;19.18
75811;BMP280;64449;50.016;19.954;2024-03-02T13:07:36;98098.25;;;19.22
75811;BMP280;64449;50.016;19.954;2024-03-02T13:10:02;98095.43;;;19.22
75811;BMP280;64449;50.016;19.954;2024-03-02T13:12:30;98094.25;;;19.16
75811;BMP280;64449;50.016;19.954;2024-03-02T13:14:57;98091.13;;;19.00
75811;BMP280;64449;50.016;19.954;2024-03-02T13:17:23;98091.30;;;18.73
75811;BMP280;64449;50.016;19.954;2024-03-02T13:19:55;98086.14;;;18.54
75811;BMP280;64449;50.016;19.954;2024-03-02T13:22:21;98083.27;;;18.38
75811;BMP280;64449;50.016;19.954;2024-03-02T13:24:47;98081.46;;;18.28
75811;BMP280;64449;50.016;19.954;2024-03-02T13:27:13;98082.49;;;18.21
75811;BMP280;64449;50.016;19.954;2024-03-02T13:29:39;98085.17;;;18.19
75811;BMP280;64449;50.016;19.954;2024-03-02T13:32:05;98088.11;;;18.17
75811;BMP280;64449;50.016;19.954;2024-03-02T13:34:30;98085.13;;;18.08
75811;BMP280;64449;50.016;19.954;2024-03-02T13:36:56;98082.23;;;18.04
75811;BMP280;64449;50.016;19.954;2024-03-02T13:39:21;98083.84;;;18.03
75811;BMP280;64449;50.016;19.954;2024-03-02T13:41:47;98084.40;;;17.94
75811;BMP280;64449;50.016;19.954;2024-03-02T13:44:21;98084.20;;;17.83
75811;BMP280;64449;50.016;19.954;2024-03-02T13:46:47;98083.13;;;17.73
75811;BMP280;64449;50.016;19.954;2024-03-02T13:49:14;98082.87;;;17.64
75811;BMP280;64449;50.016;19.954;2024-03-02T13:51:39;98081.05;;;17.59
75811;BMP280;64449;50.016;19.954;2024-03-02T13:54:05;98083.27;;;17.56
75811;BMP280;64449;50.016;19.954;2024-03-02T13:56:31;98086.29;;;17.54
75811;BMP280;64449;50.016;19.954;2024-03-02T13:58:58;98079.50;;;17.53
75811;BMP280;64449;50.016;19.954;2024-03-02T14:01:24;98077.16;;;17.56
75811;BMP280;64449;50.016;19.954;2024-03-02T14:03:50;98077.30;;;17.59
75811;BMP280;64449;50.016;19.954;2024-03-02T14:06:16;98078.20;;;17.64
75811;BMP280;64449;50.016;19.954;2024-03-02T14:08:41;98076.07;;;17.66
75811;BMP280;64449;50.016;19.954;2024-03-02T14:11:10;98075.58;;;17.66